VNKT METAR

Available data for VNKT from the past hour
KATHMANDU INTL A
Metar
VNKT 232050Z VRB02KT 6000 FEW015 SCT030 22/21 Q1008 NOSIG

20:50 UTC

Wind: ° 2kt

Visibility: 6000 m

Sky: FEW 1500 ft

Temp: 22 deg C / 71.6 deg F

Dewpoint: 21 deg C / 69.8 deg F

Pressure: 1008 hPa

TAF
TAF VNKT 231700Z 2318/2418 VRB02KT 6000 FEW015 SCT100 PROB3010 2318/2322 20008KT 4000 -RA/SHRA FEW025CB BECMG 2400/2402 VRB02KT 3000 -RA/BR FEW010 SCT030 BKN100 BECMG 2407/2408 22006KT 7000 FEW015 SCT030 BKN100 PROB40 2407/2412 VRB12KT 4000 -RA/SHRA FEW025CB BECMG 2414/2415 VRB02KT 6000 FEW015 SCT100

WARNING: the data listed  above is for informational purposes only and should be confirmed from official sources. Data presented here on this page are fetched from Aviation weather data from NOAA’s Aviation Digital Data Service.

How to see the Details of METAR Reading.

Click on the Triangle beside of the Word METAR.(Refer to Fig.1)

VNKTmetar